Tarrant West's Hourly Summary for Monday, May 7, 2018
Hour Temp
(f)
RH
(%)
Solar Rad.
(MJ/m2)
Rainfall
(in)
Wind
(mph)
5/7/2018 12:00 AM 67 59 0 0 6.57
5/7/2018 1:00 AM 67 58 0 0 6.65
5/7/2018 2:00 AM 65 61 0 0 6.67
5/7/2018 3:00 AM 64 64 0 0 5.72
5/7/2018 4:00 AM 63 65 0 0 4.9
5/7/2018 5:00 AM 62 68 0 0 4.8
5/7/2018 6:00 AM 61 70 0 0 5.1
5/7/2018 7:00 AM 62 70 0.25 0 5.5
5/7/2018 8:00 AM 67 65 0.91 0 5.53
5/7/2018 9:00 AM 73 57 1.56 0 6.53
5/7/2018 10:00 AM 78 52 2.16 0 8.13
5/7/2018 11:00 AM 81 47 2.85 0 6.72
5/7/2018 12:00 PM 84 42 3.22 0 5.9
5/7/2018 1:00 PM 87 37 3.37 0 6.1
5/7/2018 2:00 PM 88 33 3.31 0 6.1
5/7/2018 3:00 PM 89 29 1.98 0 5.67
5/7/2018 4:00 PM 90 27 2.54 0 4.88
5/7/2018 5:00 PM 89 30 1.91 0 6.55
5/7/2018 6:00 PM 86 37 19.95 0 0
5/7/2018 7:00 PM 82 46 19.95 0 0
5/7/2018 8:00 PM 77 54 19.95 0 0
5/7/2018 9:00 PM 75 60 19.95 0 0
5/7/2018 10:00 PM 73 62 19.95 0 0
5/7/2018 11:00 PM 71 65 19.95 0 0
Data Summary 75 52 143.76 0.00 4.50